sensor_id;sensor_type;location;lat;lon;timestamp;pressure;altitude;pressure_sealevel;temperature;humidity
12203;BME280;6164;42.178;24.622;2023-04-27T00:00:46;99136.56;;;11.88;80.57
12203;BME280;6164;42.178;24.622;2023-04-27T00:03:12;99108.69;;;11.85;80.70
12203;BME280;6164;42.178;24.622;2023-04-27T00:05:40;99126.75;;;11.82;81.23
12203;BME280;6164;42.178;24.622;2023-04-27T00:08:08;99109.00;;;11.76;82.32
12203;BME280;6164;42.178;24.622;2023-04-27T00:10:35;99082.84;;;11.52;83.05
12203;BME280;6164;42.178;24.622;2023-04-27T00:13:02;99117.19;;;11.66;83.26
12203;BME280;6164;42.178;24.622;2023-04-27T00:15:29;99117.19;;;11.66;83.49
12203;BME280;6164;42.178;24.622;2023-04-27T00:17:56;99122.38;;;11.60;82.49
12203;BME280;6164;42.178;24.622;2023-04-27T00:20:23;99127.16;;;11.64;82.17
12203;BME280;6164;42.178;24.622;2023-04-27T00:22:49;99148.13;;;11.66;82.08
12203;BME280;6164;42.178;24.622;2023-04-27T00:25:17;99124.94;;;11.53;81.48
12203;BME280;6164;42.178;24.622;2023-04-27T00:27:44;99140.38;;;11.64;81.13
12203;BME280;6164;42.178;24.622;2023-04-27T00:30:11;99142.19;;;11.64;80.60
12203;BME280;6164;42.178;24.622;2023-04-27T00:32:38;99147.66;;;11.62;80.22
12203;BME280;6164;42.178;24.622;2023-04-27T00:35:07;99146.00;;;11.61;79.83
12203;BME280;6164;42.178;24.622;2023-04-27T00:37:34;99145.75;;;11.56;79.87
12203;BME280;6164;42.178;24.622;2023-04-27T00:40:03;99145.31;;;11.53;80.14
12203;BME280;6164;42.178;24.622;2023-04-27T00:42:32;99157.50;;;11.54;78.71
12203;BME280;6164;42.178;24.622;2023-04-27T00:44:59;99162.22;;;11.58;78.51
12203;BME280;6164;42.178;24.622;2023-04-27T00:47:26;99171.75;;;11.53;78.49
12203;BME280;6164;42.178;24.622;2023-04-27T00:49:54;99170.06;;;11.52;78.19
12203;BME280;6164;42.178;24.622;2023-04-27T00:52:21;99164.16;;;11.50;77.60
12203;BME280;6164;42.178;24.622;2023-04-27T00:54:49;99169.81;;;11.47;77.47
12203;BME280;6164;42.178;24.622;2023-04-27T00:57:16;99160.06;;;11.47;76.85
12203;BME280;6164;42.178;24.622;2023-04-27T00:59:44;99175.09;;;11.47;77.01
12203;BME280;6164;42.178;24.622;2023-04-27T01:02:11;99173.66;;;11.44;76.60
12203;BME280;6164;42.178;24.622;2023-04-27T01:04:38;99169.91;;;11.39;76.90
12203;BME280;6164;42.178;24.622;2023-04-27T01:07:05;99174.22;;;11.40;76.49
12203;BME280;6164;42.178;24.622;2023-04-27T01:09:32;99168.09;;;11.39;76.69
12203;BME280;6164;42.178;24.622;2023-04-27T01:11:59;99174.75;;;11.35;76.36
12203;BME280;6164;42.178;24.622;2023-04-27T01:14:25;99172.66;;;11.31;76.21
12203;BME280;6164;42.178;24.622;2023-04-27T01:16:54;99196.63;;;11.29;76.07
12203;BME280;6164;42.178;24.622;2023-04-27T01:19:20;99188.03;;;11.27;75.99
12203;BME280;6164;42.178;24.622;2023-04-27T01:21:48;99204.09;;;11.26;75.71
12203;BME280;6164;42.178;24.622;2023-04-27T01:24:16;99204.38;;;11.31;75.17
12203;BME280;6164;42.178;24.622;2023-04-27T01:26:42;99200.63;;;11.25;74.99
12203;BME280;6164;42.178;24.622;2023-04-27T01:29:09;99188.78;;;11.21;75.13
12203;BME280;6164;42.178;24.622;2023-04-27T01:31:36;99203.81;;;11.21;75.11
12203;BME280;6164;42.178;24.622;2023-04-27T01:34:04;99207.47;;;11.20;75.03
12203;BME280;6164;42.178;24.622;2023-04-27T01:36:30;99205.53;;;11.14;75.25
12203;BME280;6164;42.178;24.622;2023-04-27T01:38:57;99203.91;;;11.13;75.33
12203;BME280;6164;42.178;24.622;2023-04-27T01:41:25;99210.28;;;11.18;75.83
12203;BME280;6164;42.178;24.622;2023-04-27T01:43:52;99209.38;;;11.11;75.13
12203;BME280;6164;42.178;24.622;2023-04-27T01:46:19;99217.47;;;11.10;75.39
12203;BME280;6164;42.178;24.622;2023-04-27T01:48:46;99217.84;;;11.07;75.14
12203;BME280;6164;42.178;24.622;2023-04-27T01:51:12;99209.44;;;11.03;75.07
12203;BME280;6164;42.178;24.622;2023-04-27T01:53:40;99205.50;;;10.99;75.44
12203;BME280;6164;42.178;24.622;2023-04-27T01:56:07;99217.19;;;11.05;74.67
12203;BME280;6164;42.178;24.622;2023-04-27T01:58:36;99214.28;;;11.00;74.76
12203;BME280;6164;42.178;24.622;2023-04-27T02:01:02;99210.16;;;10.97;74.63
12203;BME280;6164;42.178;24.622;2023-04-27T02:03:29;99218.25;;;10.96;74.54
12203;BME280;6164;42.178;24.622;2023-04-27T02:05:56;99221.72;;;10.96;74.48
12203;BME280;6164;42.178;24.622;2023-04-27T02:08:23;99211.16;;;10.96;74.57
12203;BME280;6164;42.178;24.622;2023-04-27T02:10:49;99227.38;;;10.93;74.27
12203;BME280;6164;42.178;24.622;2023-04-27T02:13:16;99222.28;;;10.92;74.60
12203;BME280;6164;42.178;24.622;2023-04-27T02:15:44;99216.53;;;10.88;74.31
12203;BME280;6164;42.178;24.622;2023-04-27T02:18:11;99224.25;;;10.90;74.30
12203;BME280;6164;42.178;24.622;2023-04-27T02:20:38;99235.28;;;10.93;73.67
12203;BME280;6164;42.178;24.622;2023-04-27T02:23:05;99227.38;;;10.93;73.87
12203;BME280;6164;42.178;24.622;2023-04-27T02:25:34;99229.00;;;10.94;73.78
12203;BME280;6164;42.178;24.622;2023-04-27T02:28:01;99237.28;;;10.91;73.20
12203;BME280;6164;42.178;24.622;2023-04-27T02:30:28;99240.56;;;10.93;73.06
12203;BME280;6164;42.178;24.622;2023-04-27T02:32:58;99238.47;;;10.89;72.92
12203;BME280;6164;42.178;24.622;2023-04-27T02:35:25;99239.28;;;10.89;73.00
12203;BME280;6164;42.178;24.622;2023-04-27T02:37:51;99236.34;;;10.84;72.97
12203;BME280;6164;42.178;24.622;2023-04-27T02:40:18;99227.44;;;10.85;73.09
12203;BME280;6164;42.178;24.622;2023-04-27T02:42:45;99238.47;;;10.89;72.98
12203;BME280;6164;42.178;24.622;2023-04-27T02:45:12;99233.53;;;10.86;72.41
12203;BME280;6164;42.178;24.622;2023-04-27T02:47:38;99234.25;;;10.80;72.72
12203;BME280;6164;42.178;24.622;2023-04-27T02:50:08;99241.53;;;10.78;72.82
12203;BME280;6164;42.178;24.622;2023-04-27T02:52:35;99244.00;;;10.79;72.81
12203;BME280;6164;42.178;24.622;2023-04-27T02:55:01;99231.22;;;10.68;72.30
12203;BME280;6164;42.178;24.622;2023-04-27T02:57:28;99250.47;;;10.77;72.50
12203;BME280;6164;42.178;24.622;2023-04-27T02:59:55;99243.69;;;10.74;72.62
12203;BME280;6164;42.178;24.622;2023-04-27T03:02:21;99260.19;;;10.76;72.65
12203;BME280;6164;42.178;24.622;2023-04-27T03:04:51;99264.81;;;10.74;72.83
12203;BME280;6164;42.178;24.622;2023-04-27T03:07:20;99251.00;;;10.72;72.74
12203;BME280;6164;42.178;24.622;2023-04-27T03:09:47;99257.72;;;10.75;72.66
12203;BME280;6164;42.178;24.622;2023-04-27T03:12:13;99270.09;;;10.74;72.75
12203;BME280;6164;42.178;24.622;2023-04-27T03:14:40;99256.28;;;10.72;72.84
12203;BME280;6164;42.178;24.622;2023-04-27T03:17:07;99266.66;;;10.74;72.77
12203;BME280;6164;42.178;24.622;2023-04-27T03:19:33;99270.63;;;10.70;73.36
12203;BME280;6164;42.178;24.622;2023-04-27T03:22:00;99272.28;;;10.71;73.62
12203;BME280;6164;42.178;24.622;2023-04-27T03:24:28;99267.47;;;10.74;73.12
12203;BME280;6164;42.178;24.622;2023-04-27T03:26:55;99275.13;;;10.69;72.54
12203;BME280;6164;42.178;24.622;2023-04-27T03:29:22;99275.44;;;10.66;73.02
12203;BME280;6164;42.178;24.622;2023-04-27T03:31:48;99281.72;;;10.65;73.14
12203;BME280;6164;42.178;24.622;2023-04-27T03:34:15;99276.63;;;10.63;73.28
12203;BME280;6164;42.178;24.622;2023-04-27T03:36:42;99287.00;;;10.65;72.78
12203;BME280;6164;42.178;24.622;2023-04-27T03:39:08;99287.50;;;10.69;72.67
12203;BME280;6164;42.178;24.622;2023-04-27T03:41:37;99283.91;;;10.61;72.53
12203;BME280;6164;42.178;24.622;2023-04-27T03:44:03;99282.91;;;10.62;72.33
12203;BME280;6164;42.178;24.622;2023-04-27T03:46:30;99304.66;;;10.64;72.66
12203;BME280;6164;42.178;24.622;2023-04-27T03:48:57;99302.84;;;10.65;72.69
12203;BME280;6164;42.178;24.622;2023-04-27T03:51:24;99298.91;;;10.61;72.03
12203;BME280;6164;42.178;24.622;2023-04-27T03:53:51;99300.94;;;10.59;72.81
12203;BME280;6164;42.178;24.622;2023-04-27T03:56:18;99311.31;;;10.60;72.46
12203;BME280;6164;42.178;24.622;2023-04-27T03:58:46;99309.47;;;10.61;72.83
12203;BME280;6164;42.178;24.622;2023-04-27T04:01:13;99307.84;;;10.60;72.71
12203;BME280;6164;42.178;24.622;2023-04-27T04:03:41;99317.38;;;10.61;72.79
12203;BME280;6164;42.178;24.622;2023-04-27T04:06:07;99317.91;;;10.56;72.70
12203;BME280;6164;42.178;24.622;2023-04-27T04:08:34;99328.25;;;10.66;72.92
12203;BME280;6164;42.178;24.622;2023-04-27T04:11:01;99319.22;;;10.60;72.96
12203;BME280;6164;42.178;24.622;2023-04-27T04:13:28;99325.44;;;10.68;72.21
12203;BME280;6164;42.178;24.622;2023-04-27T04:16:03;99328.72;;;10.70;71.93
12203;BME280;6164;42.178;24.622;2023-04-27T04:18:30;99335.47;;;10.72;71.82
12203;BME280;6164;42.178;24.622;2023-04-27T04:20:57;99335.19;;;10.67;72.01
12203;BME280;6164;42.178;24.622;2023-04-27T04:23:24;99329.97;;;10.59;71.73
12203;BME280;6164;42.178;24.622;2023-04-27T04:25:51;99343.75;;;10.69;71.58
12203;BME280;6164;42.178;24.622;2023-04-27T04:28:18;99329.13;;;10.58;71.69
12203;BME280;6164;42.178;24.622;2023-04-27T04:30:45;99336.75;;;10.76;72.04
12203;BME280;6164;42.178;24.622;2023-04-27T04:33:13;99345.34;;;10.78;71.74
12203;BME280;6164;42.178;24.622;2023-04-27T04:35:41;99352.41;;;10.78;71.14
12203;BME280;6164;42.178;24.622;2023-04-27T04:38:08;99347.78;;;10.80;70.78
12203;BME280;6164;42.178;24.622;2023-04-27T04:40:37;99355.91;;;10.78;70.91
12203;BME280;6164;42.178;24.622;2023-04-27T04:43:04;99350.97;;;10.75;70.89
12203;BME280;6164;42.178;24.622;2023-04-27T04:45:31;99352.91;;;10.81;70.91
12203;BME280;6164;42.178;24.622;2023-04-27T04:47:58;99350.72;;;10.85;71.04
12203;BME280;6164;42.178;24.622;2023-04-27T04:50:27;99352.22;;;10.87;71.41
12203;BME280;6164;42.178;24.622;2023-04-27T04:52:54;99357.63;;;10.94;71.34
12203;BME280;6164;42.178;24.622;2023-04-27T04:55:21;99369.63;;;10.96;69.85
12203;BME280;6164;42.178;24.622;2023-04-27T04:57:48;99378.91;;;10.92;69.31
12203;BME280;6164;42.178;24.622;2023-04-27T05:00:15;99345.56;;;10.91;69.39
12203;BME280;6164;42.178;24.622;2023-04-27T05:02:42;99377.56;;;10.96;69.03
12203;BME280;6164;42.178;24.622;2023-04-27T05:05:09;99370.41;;;11.05;69.49
12203;BME280;6164;42.178;24.622;2023-04-27T05:07:37;99383.06;;;11.09;70.06
12203;BME280;6164;42.178;24.622;2023-04-27T05:10:04;99386.38;;;11.11;68.92
12203;BME280;6164;42.178;24.622;2023-04-27T05:12:31;99392.66;;;11.10;67.97
12203;BME280;6164;42.178;24.622;2023-04-27T05:14:57;99390.94;;;11.17;67.99
12203;BME280;6164;42.178;24.622;2023-04-27T05:17:25;99395.84;;;11.20;67.74
12203;BME280;6164;42.178;24.622;2023-04-27T05:19:52;99401.78;;;11.22;66.70
12203;BME280;6164;42.178;24.622;2023-04-27T05:22:18;99407.91;;;11.23;66.53
12203;BME280;6164;42.178;24.622;2023-04-27T05:24:46;99412.06;;;11.17;66.30
12203;BME280;6164;42.178;24.622;2023-04-27T05:27:13;99400.41;;;11.12;66.90
12203;BME280;6164;42.178;24.622;2023-04-27T05:29:40;99399.31;;;11.21;67.20
12203;BME280;6164;42.178;24.622;2023-04-27T05:32:07;99396.22;;;11.17;67.48
12203;BME280;6164;42.178;24.622;2023-04-27T05:34:33;99401.03;;;11.14;66.60
12203;BME280;6164;42.178;24.622;2023-04-27T05:37:01;99410.13;;;11.11;66.80
12203;BME280;6164;42.178;24.622;2023-04-27T05:39:27;99389.31;;;11.16;67.38
12203;BME280;6164;42.178;24.622;2023-04-27T05:41:55;99411.47;;;11.07;66.51
12203;BME280;6164;42.178;24.622;2023-04-27T05:44:23;99401.56;;;11.09;67.30
12203;BME280;6164;42.178;24.622;2023-04-27T05:46:52;99402.03;;;10.90;66.51
12203;BME280;6164;42.178;24.622;2023-04-27T05:49:20;99403.50;;;10.93;66.87
12203;BME280;6164;42.178;24.622;2023-04-27T05:51:47;99417.03;;;10.90;66.23
12203;BME280;6164;42.178;24.622;2023-04-27T05:54:13;99417.59;;;10.85;66.51
12203;BME280;6164;42.178;24.622;2023-04-27T05:56:40;99425.38;;;10.79;66.80
12203;BME280;6164;42.178;24.622;2023-04-27T05:59:08;99421.91;;;10.78;66.46
12203;BME280;6164;42.178;24.622;2023-04-27T06:01:35;99423.41;;;10.73;66.72
12203;BME280;6164;42.178;24.622;2023-04-27T06:04:02;99435.63;;;10.74;66.92
12203;BME280;6164;42.178;24.622;2023-04-27T06:06:30;99419.97;;;10.72;67.15
12203;BME280;6164;42.178;24.622;2023-04-27T06:08:58;99424.38;;;10.80;68.06
12203;BME280;6164;42.178;24.622;2023-04-27T06:11:25;99433.25;;;10.87;67.47
12203;BME280;6164;42.178;24.622;2023-04-27T06:13:51;99425.84;;;10.82;67.34
12203;BME280;6164;42.178;24.622;2023-04-27T06:16:19;99428.31;;;10.84;67.32
12203;BME280;6164;42.178;24.622;2023-04-27T06:18:47;99434.69;;;10.89;67.40
12203;BME280;6164;42.178;24.622;2023-04-27T06:21:14;99434.81;;;10.96;67.57
12203;BME280;6164;42.178;24.622;2023-04-27T06:23:40;99421.63;;;10.96;67.85
12203;BME280;6164;42.178;24.622;2023-04-27T06:26:07;99424.50;;;11.09;68.16
12203;BME280;6164;42.178;24.622;2023-04-27T06:28:34;99424.59;;;11.23;68.19
12203;BME280;6164;42.178;24.622;2023-04-27T06:31:01;99427.09;;;11.39;68.22
12203;BME280;6164;42.178;24.622;2023-04-27T06:33:29;99435.63;;;11.49;67.59
12203;BME280;6164;42.178;24.622;2023-04-27T06:35:55;99438.00;;;11.59;67.35
12203;BME280;6164;42.178;24.622;2023-04-27T06:38:22;99449.31;;;11.75;66.92
12203;BME280;6164;42.178;24.622;2023-04-27T06:40:50;99439.66;;;11.82;66.33
12203;BME280;6164;42.178;24.622;2023-04-27T06:43:17;99448.69;;;12.03;66.13
12203;BME280;6164;42.178;24.622;2023-04-27T06:45:44;99435.75;;;12.08;66.91
12203;BME280;6164;42.178;24.622;2023-04-27T06:48:11;99455.38;;;12.28;66.22
12203;BME280;6164;42.178;24.622;2023-04-27T06:50:39;99465.41;;;12.32;65.22
12203;BME280;6164;42.178;24.622;2023-04-27T06:53:05;99462.78;;;12.47;64.73
12203;BME280;6164;42.178;24.622;2023-04-27T06:55:32;99457.84;;;12.58;65.17
12203;BME280;6164;42.178;24.622;2023-04-27T06:57:59;99457.38;;;12.69;64.90
12203;BME280;6164;42.178;24.622;2023-04-27T07:00:26;99475.44;;;12.80;63.91
12203;BME280;6164;42.178;24.622;2023-04-27T07:02:53;99471.59;;;12.83;63.51
12203;BME280;6164;42.178;24.622;2023-04-27T07:05:20;99470.66;;;12.90;63.60
12203;BME280;6164;42.178;24.622;2023-04-27T07:07:48;99469.22;;;12.88;62.72
12203;BME280;6164;42.178;24.622;2023-04-27T07:10:15;99455.41;;;13.07;64.07
12203;BME280;6164;42.178;24.622;2023-04-27T07:12:42;99468.53;;;13.15;62.83
12203;BME280;6164;42.178;24.622;2023-04-27T07:15:09;99492.31;;;13.08;61.43
12203;BME280;6164;42.178;24.622;2023-04-27T07:17:35;99503.94;;;13.07;61.14
12203;BME280;6164;42.178;24.622;2023-04-27T07:20:03;99496.78;;;13.08;60.37
12203;BME280;6164;42.178;24.622;2023-04-27T07:22:30;99507.09;;;13.17;59.67
12203;BME280;6164;42.178;24.622;2023-04-27T07:24:59;99509.00;;;13.23;59.13
12203;BME280;6164;42.178;24.622;2023-04-27T07:27:25;99495.75;;;13.45;60.31
12203;BME280;6164;42.178;24.622;2023-04-27T07:29:52;99496.34;;;13.61;60.21
12203;BME280;6164;42.178;24.622;2023-04-27T07:32:19;99527.72;;;13.58;58.35
12203;BME280;6164;42.178;24.622;2023-04-27T07:34:46;99537.19;;;13.46;57.06
12203;BME280;6164;42.178;24.622;2023-04-27T07:37:15;99519.50;;;13.53;57.27
12203;BME280;6164;42.178;24.622;2023-04-27T07:39:42;99530.44;;;13.64;57.27
12203;BME280;6164;42.178;24.622;2023-04-27T07:42:11;99519.53;;;13.74;56.94
12203;BME280;6164;42.178;24.622;2023-04-27T07:44:37;99518.06;;;13.71;57.59
12203;BME280;6164;42.178;24.622;2023-04-27T07:47:05;99491.72;;;13.70;57.51
12203;BME280;6164;42.178;24.622;2023-04-27T07:49:31;99519.41;;;13.82;57.04
12203;BME280;6164;42.178;24.622;2023-04-27T07:51:59;99512.13;;;13.90;57.49
12203;BME280;6164;42.178;24.622;2023-04-27T07:54:26;99519.84;;;13.85;56.56
12203;BME280;6164;42.178;24.622;2023-04-27T07:56:53;99496.50;;;14.02;57.97
12203;BME280;6164;42.178;24.622;2023-04-27T07:59:21;99508.91;;;13.95;57.07
12203;BME280;6164;42.178;24.622;2023-04-27T08:01:48;99500.97;;;14.01;57.46
12203;BME280;6164;42.178;24.622;2023-04-27T08:04:15;99529.94;;;13.96;56.61
12203;BME280;6164;42.178;24.622;2023-04-27T08:06:41;99528.41;;;13.87;55.50
12203;BME280;6164;42.178;24.622;2023-04-27T08:09:10;99538.13;;;14.01;55.64
12203;BME280;6164;42.178;24.622;2023-04-27T08:11:36;99544.28;;;14.02;54.57
12203;BME280;6164;42.178;24.622;2023-04-27T08:14:03;99533.00;;;14.21;54.86
12203;BME280;6164;42.178;24.622;2023-04-27T08:16:32;99520.75;;;14.47;56.02
12203;BME280;6164;42.178;24.622;2023-04-27T08:18:59;99538.25;;;14.70;54.54
12203;BME280;6164;42.178;24.622;2023-04-27T08:21:26;99530.06;;;15.05;54.71
12203;BME280;6164;42.178;24.622;2023-04-27T08:23:54;99561.72;;;15.00;52.94
12203;BME280;6164;42.178;24.622;2023-04-27T08:26:21;99571.16;;;15.09;53.06
12203;BME280;6164;42.178;24.622;2023-04-27T08:28:48;99559.13;;;15.13;53.33
12203;BME280;6164;42.178;24.622;2023-04-27T08:31:15;99570.75;;;15.12;52.24
12203;BME280;6164;42.178;24.622;2023-04-27T08:33:43;99557.78;;;14.90;52.59
12203;BME280;6164;42.178;24.622;2023-04-27T08:36:09;99581.56;;;15.04;51.49
12203;BME280;6164;42.178;24.622;2023-04-27T08:38:36;99575.75;;;15.28;52.37
12203;BME280;6164;42.178;24.622;2023-04-27T08:41:03;99573.88;;;15.63;52.44
12203;BME280;6164;42.178;24.622;2023-04-27T08:43:33;99594.75;;;15.66;50.33
12203;BME280;6164;42.178;24.622;2023-04-27T08:46:01;99624.28;;;15.37;50.56
12203;BME280;6164;42.178;24.622;2023-04-27T08:48:28;99635.75;;;15.37;49.42
12203;BME280;6164;42.178;24.622;2023-04-27T08:50:58;99613.50;;;15.45;50.36
12203;BME280;6164;42.178;24.622;2023-04-27T08:53:27;99559.84;;;15.35;50.30
12203;BME280;6164;42.178;24.622;2023-04-27T08:55:55;99620.56;;;15.72;50.67
12203;BME280;6164;42.178;24.622;2023-04-27T08:58:22;99623.88;;;15.94;50.21
12203;BME280;6164;42.178;24.622;2023-04-27T09:01:04;99645.00;;;16.02;49.08
12203;BME280;6164;42.178;24.622;2023-04-27T09:03:31;99628.31;;;15.67;48.79
12203;BME280;6164;42.178;24.622;2023-04-27T09:06:00;99640.31;;;16.17;49.12
12203;BME280;6164;42.178;24.622;2023-04-27T09:08:27;99608.38;;;16.30;49.59
12203;BME280;6164;42.178;24.622;2023-04-27T09:10:54;99601.22;;;16.63;49.77
12203;BME280;6164;42.178;24.622;2023-04-27T09:13:21;99592.59;;;16.61;51.49
12203;BME280;6164;42.178;24.622;2023-04-27T09:15:49;99634.81;;;16.44;48.26
12203;BME280;6164;42.178;24.622;2023-04-27T09:18:18;99631.16;;;16.52;48.62
12203;BME280;6164;42.178;24.622;2023-04-27T09:20:45;99639.13;;;16.78;48.76
12203;BME280;6164;42.178;24.622;2023-04-27T09:23:26;99660.66;;;16.44;47.19
12203;BME280;6164;42.178;24.622;2023-04-27T09:25:53;99648.09;;;16.12;47.99
12203;BME280;6164;42.178;24.622;2023-04-27T09:28:20;99649.16;;;16.30;47.81
12203;BME280;6164;42.178;24.622;2023-04-27T09:30:50;99635.44;;;16.59;48.64
12203;BME280;6164;42.178;24.622;2023-04-27T09:33:21;99669.69;;;16.49;46.92
12203;BME280;6164;42.178;24.622;2023-04-27T09:35:49;99663.31;;;16.37;47.51
12203;BME280;6164;42.178;24.622;2023-04-27T09:38:17;99661.84;;;16.41;47.21
12203;BME280;6164;42.178;24.622;2023-04-27T09:40:46;99639.78;;;16.54;48.14
12203;BME280;6164;42.178;24.622;2023-04-27T09:43:13;99649.38;;;16.87;47.71
12203;BME280;6164;42.178;24.622;2023-04-27T09:45:40;99671.13;;;16.71;45.94
12203;BME280;6164;42.178;24.622;2023-04-27T09:48:08;99670.28;;;16.90;47.11
12203;BME280;6164;42.178;24.622;2023-04-27T09:50:35;99641.63;;;16.53;46.56
12203;BME280;6164;42.178;24.622;2023-04-27T09:53:04;99698.56;;;16.46;45.57
12203;BME280;6164;42.178;24.622;2023-04-27T09:55:35;99706.28;;;16.21;46.41
12203;BME280;6164;42.178;24.622;2023-04-27T09:58:23;99675.78;;;16.24;46.76
12203;BME280;6164;42.178;24.622;2023-04-27T10:01:01;99666.53;;;16.20;46.57
12203;BME280;6164;42.178;24.622;2023-04-27T10:03:38;99672.97;;;16.58;47.03
12203;BME280;6164;42.178;24.622;2023-04-27T10:09:09;99671.13;;;16.58;47.18
12203;BME280;6164;42.178;24.622;2023-04-27T10:11:39;99643.63;;;16.45;47.88
12203;BME280;6164;42.178;24.622;2023-04-27T10:14:09;99651.81;;;16.43;47.95
12203;BME280;6164;42.178;24.622;2023-04-27T10:16:43;99636.06;;;16.48;48.24
12203;BME280;6164;42.178;24.622;2023-04-27T10:19:10;99650.81;;;16.51;47.06
12203;BME280;6164;42.178;24.622;2023-04-27T10:21:38;99691.75;;;16.24;46.11
12203;BME280;6164;42.178;24.622;2023-04-27T10:24:16;99690.94;;;16.23;46.06
12203;BME280;6164;42.178;24.622;2023-04-27T10:26:45;99700.41;;;16.32;45.86
12203;BME280;6164;42.178;24.622;2023-04-27T10:29:14;99683.41;;;16.53;46.42
12203;BME280;6164;42.178;24.622;2023-04-27T10:31:43;99688.97;;;16.71;45.64
12203;BME280;6164;42.178;24.622;2023-04-27T10:34:15;99699.41;;;16.66;46.07
12203;BME280;6164;42.178;24.622;2023-04-27T10:36:43;99697.38;;;16.48;45.39
12203;BME280;6164;42.178;24.622;2023-04-27T10:39:15;99700.25;;;16.60;45.75
12203;BME280;6164;42.178;24.622;2023-04-27T10:41:49;99702.09;;;16.72;45.82
12203;BME280;6164;42.178;24.622;2023-04-27T10:44:19;99687.97;;;16.78;45.65
12203;BME280;6164;42.178;24.622;2023-04-27T10:46:49;99713.78;;;16.78;44.92
12203;BME280;6164;42.178;24.622;2023-04-27T10:49:16;99705.38;;;16.74;45.92
12203;BME280;6164;42.178;24.622;2023-04-27T10:51:43;99710.09;;;16.85;45.52
12203;BME280;6164;42.178;24.622;2023-04-27T10:54:10;99726.28;;;16.77;45.06
12203;BME280;6164;42.178;24.622;2023-04-27T10:56:37;99751.94;;;16.85;43.75
12203;BME280;6164;42.178;24.622;2023-04-27T10:59:04;99746.63;;;16.78;44.68
12203;BME280;6164;42.178;24.622;2023-04-27T11:01:33;99760.53;;;16.74;44.36
12203;BME280;6164;42.178;24.622;2023-04-27T11:04:01;99769.16;;;16.76;44.13
12203;BME280;6164;42.178;24.622;2023-04-27T11:06:29;99770.53;;;16.52;44.97
12203;BME280;6164;42.178;24.622;2023-04-27T11:08:56;99764.94;;;16.41;43.80
12203;BME280;6164;42.178;24.622;2023-04-27T11:11:23;99779.53;;;16.45;43.43
12203;BME280;6164;42.178;24.622;2023-04-27T11:13:50;99782.22;;;16.51;43.74
12203;BME280;6164;42.178;24.622;2023-04-27T11:16:17;99794.94;;;16.56;42.72
12203;BME280;6164;42.178;24.622;2023-04-27T11:18:46;99806.84;;;16.47;43.00
12203;BME280;6164;42.178;24.622;2023-04-27T11:21:14;99786.72;;;16.51;44.75
12203;BME280;6164;42.178;24.622;2023-04-27T11:23:41;99781.34;;;16.44;43.91
12203;BME280;6164;42.178;24.622;2023-04-27T11:26:09;99805.31;;;16.38;42.78
12203;BME280;6164;42.178;24.622;2023-04-27T11:28:36;99797.59;;;16.49;43.72
12203;BME280;6164;42.178;24.622;2023-04-27T11:31:04;99782.88;;;16.60;43.30
12203;BME280;6164;42.178;24.622;2023-04-27T11:33:32;99816.31;;;16.69;42.33
12203;BME280;6164;42.178;24.622;2023-04-27T11:36:00;99835.38;;;16.72;42.01
12203;BME280;6164;42.178;24.622;2023-04-27T11:38:32;99794.81;;;16.77;43.66
12203;BME280;6164;42.178;24.622;2023-04-27T11:41:00;99817.13;;;16.69;42.63
12203;BME280;6164;42.178;24.622;2023-04-27T11:43:28;99814.06;;;16.79;43.30
12203;BME280;6164;42.178;24.622;2023-04-27T11:45:55;99855.28;;;16.63;41.39
12203;BME280;6164;42.178;24.622;2023-04-27T11:48:23;99871.88;;;16.65;41.56
12203;BME280;6164;42.178;24.622;2023-04-27T11:50:50;99880.50;;;16.74;40.90
12203;BME280;6164;42.178;24.622;2023-04-27T11:53:28;99854.69;;;16.81;42.68
12203;BME280;6164;42.178;24.622;2023-04-27T11:55:55;99859.06;;;17.01;41.75
12203;BME280;6164;42.178;24.622;2023-04-27T11:58:22;99863.13;;;16.97;42.15
12203;BME280;6164;42.178;24.622;2023-04-27T12:00:50;99870.31;;;17.03;40.98
12203;BME280;6164;42.178;24.622;2023-04-27T12:03:17;99884.91;;;17.14;40.70
12203;BME280;6164;42.178;24.622;2023-04-27T12:05:47;99910.72;;;17.00;40.04
12203;BME280;6164;42.178;24.622;2023-04-27T12:08:14;99909.97;;;17.20;40.65
12203;BME280;6164;42.178;24.622;2023-04-27T12:10:43;99940.34;;;17.25;39.19
12203;BME280;6164;42.178;24.622;2023-04-27T12:13:10;99938.34;;;17.73;38.97
12203;BME280;6164;42.178;24.622;2023-04-27T12:15:37;99949.44;;;17.89;38.84
12203;BME280;6164;42.178;24.622;2023-04-27T12:18:04;99937.72;;;18.10;39.57
12203;BME280;6164;42.178;24.622;2023-04-27T12:20:32;99937.66;;;18.49;38.63
12203;BME280;6164;42.178;24.622;2023-04-27T12:22:58;99964.25;;;18.82;37.62
12203;BME280;6164;42.178;24.622;2023-04-27T12:25:25;100011.88;;;18.54;36.54
12203;BME280;6164;42.178;24.622;2023-04-27T12:27:53;100003.84;;;18.54;37.20
12203;BME280;6164;42.178;24.622;2023-04-27T12:30:21;100014.25;;;18.94;37.48
12203;BME280;6164;42.178;24.622;2023-04-27T12:32:48;100038.22;;;19.20;36.09
12203;BME280;6164;42.178;24.622;2023-04-27T12:35:15;100037.94;;;19.73;36.86
12203;BME280;6164;42.178;24.622;2023-04-27T12:37:42;100070.47;;;19.76;35.84
12203;BME280;6164;42.178;24.622;2023-04-27T12:40:09;100106.41;;;19.62;34.47
12203;BME280;6164;42.178;24.622;2023-04-27T12:42:36;100135.84;;;19.62;33.42
12203;BME280;6164;42.178;24.622;2023-04-27T12:45:06;100119.09;;;19.42;36.91
12203;BME280;6164;42.178;24.622;2023-04-27T12:47:32;100092.53;;;19.40;37.19
12203;BME280;6164;42.178;24.622;2023-04-27T12:49:59;100072.38;;;19.69;38.34
12203;BME280;6164;42.178;24.622;2023-04-27T12:52:26;100047.41;;;20.31;37.74
12203;BME280;6164;42.178;24.622;2023-04-27T12:54:53;100074.84;;;20.93;35.50
12203;BME280;6164;42.178;24.622;2023-04-27T12:57:23;100118.38;;;20.53;34.99
12203;BME280;6164;42.178;24.622;2023-04-27T12:59:51;100118.03;;;20.43;36.10
12203;BME280;6164;42.178;24.622;2023-04-27T13:02:19;100116.72;;;20.76;35.13
12203;BME280;6164;42.178;24.622;2023-04-27T13:04:46;100136.09;;;20.78;34.60